Time;durP1;ratioP1;P1;durP2;ratioP2;P2;SDS_P1;SDS_P2;PMS_P1;PMS_P2;Temp;Humidity;BMP_temperature;BMP_pressure;BME280_temperature;BME280_humidity;BME280_pressure;Samples;Min_cycle;Max_cycle;Signal;HPM_P1;HPM_P2
2022/09/01 00:01:42;;;;;;;4.30;3.80;;;;;;;13.72;83.72;95557.04;1732073;82;21030;-78
2022/09/01 00:04:14;;;;;;;8.53;4.08;;;;;;;13.68;84.22;95553.20;1732050;82;21328;-78
2022/09/01 00:06:41;;;;;;;7.78;3.90;;;;;;;13.69;84.02;95550.98;1732447;83;21018;-78
2022/09/01 00:09:13;;;;;;;9.55;3.80;;;;;;;13.69;84.45;95551.84;1732025;83;20975;-78
2022/09/01 00:11:44;;;;;;;7.20;3.87;;;;;;;13.68;84.17;95551.41;1732011;83;21051;-78
2022/09/01 00:14:11;;;;;;;7.10;4.30;;;;;;;13.70;83.78;95544.75;1732057;83;21457;-79
2022/09/01 00:16:38;;;;;;;6.53;4.35;;;;;;;13.73;83.46;95544.17;1732105;83;21000;-78
2022/09/01 00:19:06;;;;;;;16.20;7.33;;;;;;;13.73;83.04;95541.53;1731891;83;21500;-78
2022/09/01 00:21:38;;;;;;;6.37;4.50;;;;;;;13.73;82.99;95541.53;1732073;83;21011;-78
2022/09/01 00:24:06;;;;;;;8.48;3.80;;;;;;;13.69;83.04;95539.05;1732124;83;21074;-78
2022/09/01 00:26:33;;;;;;;9.98;3.58;;;;;;;13.63;83.14;95535.67;1731685;83;21031;-78
2022/09/01 00:29:00;;;;;;;5.65;3.60;;;;;;;13.56;83.21;95534.13;1731853;83;20992;-78
2022/09/01 00:31:27;;;;;;;6.00;3.37;;;;;;;13.48;83.17;95533.50;1732224;83;21051;-78
2022/09/01 00:33:54;;;;;;;7.90;3.25;;;;;;;13.49;83.27;95527.27;1731698;83;21023;-78
2022/09/01 00:36:22;;;;;;;5.97;3.50;;;;;;;13.56;83.21;95531.94;1732313;83;20975;-78
2022/09/01 00:38:50;;;;;;;6.65;3.50;;;;;;;13.56;82.78;95527.97;1732127;83;21050;-79
2022/09/01 00:41:21;;;;;;;6.37;3.80;;;;;;;13.48;83.18;95530.86;1732284;83;21023;-78
2022/09/01 00:43:56;;;;;;;7.55;3.70;;;;;;;13.44;84.04;95526.55;1732294;83;21602;-79
2022/09/01 00:46:34;;;;;;;5.95;3.80;;;;;;;13.51;84.27;95523.27;1730990;83;21038;-78
2022/09/01 00:49:27;;;;;;;5.20;3.75;;;;;;;13.55;84.18;95523.09;1704968;82;21043;-79
2022/09/01 00:51:59;;;;;;;10.60;3.95;;;;;;;13.66;84.16;95528.52;1701426;84;21027;-79
2022/09/01 00:54:32;;;;;;;9.93;3.98;;;;;;;13.69;83.53;95531.09;1701543;84;20999;-78
2022/09/01 00:57:01;;;;;;;5.45;3.47;;;;;;;13.69;83.13;95529.77;1701512;84;21592;-78
2022/09/01 00:59:28;;;;;;;10.95;4.10;;;;;;;13.61;83.20;95518.94;1701120;84;21589;-79
2022/09/01 01:01:56;;;;;;;5.78;3.90;;;;;;;13.51;82.51;95517.96;1701415;84;21015;-79
2022/09/01 01:04:25;;;;;;;9.03;3.85;;;;;;;13.43;83.65;95519.53;1701275;84;21003;-78
2022/09/01 01:07:00;;;;;;;7.97;3.90;;;;;;;13.41;83.43;95518.70;1701355;84;21497;-79
2022/09/01 01:09:32;;;;;;;6.10;3.65;;;;;;;13.33;84.02;95518.05;1701475;84;21095;-79
2022/09/01 01:12:02;;;;;;;9.13;3.87;;;;;;;13.30;84.16;95517.68;1701201;84;21545;-79
2022/09/01 01:14:30;;;;;;;5.12;3.60;;;;;;;13.32;83.88;95513.20;1701148;84;21564;-78
2022/09/01 01:16:59;;;;;;;6.25;3.80;;;;;;;13.34;83.63;95515.36;1701413;84;21012;-78
2022/09/01 01:25:17;;;;;;;6.22;3.87;;;;;;;13.37;83.05;95516.58;1701587;84;20991;-78
2022/09/01 01:27:44;;;;;;;6.95;3.30;;;;;;;13.29;83.74;95510.66;1679629;84;21011;-79
2022/09/01 01:30:13;;;;;;;7.08;4.00;;;;;;;13.31;84.34;95502.67;1701303;84;21067;-79
2022/09/01 01:32:41;;;;;;;6.40;3.80;;;;;;;13.36;84.28;95502.08;1701261;84;21031;-79
2022/09/01 01:35:13;;;;;;;5.50;3.65;;;;;;;13.33;84.03;95500.39;1701192;84;21827;-78
2022/09/01 01:37:45;;;;;;;9.23;3.83;;;;;;;13.22;83.88;95499.80;1701366;84;21570;-79
2022/09/01 01:40:16;;;;;;;6.40;3.65;;;;;;;13.16;84.27;95498.21;1701238;84;21011;-79
2022/09/01 01:42:49;;;;;;;8.03;3.47;;;;;;;13.10;85.08;95506.78;1701186;84;21023;-78
2022/09/01 01:45:20;;;;;;;3.80;3.45;;;;;;;13.10;84.10;95505.46;1701226;84;21501;-79
2022/09/01 01:47:52;;;;;;;7.50;4.05;;;;;;;13.05;84.57;95499.44;1709419;83;21034;-79
2022/09/01 01:50:26;;;;;;;9.53;3.60;;;;;;;13.12;84.90;95499.66;1705699;83;21027;-79
2022/09/01 01:52:54;;;;;;;6.10;3.42;;;;;;;13.08;83.96;95496.25;1732070;83;21078;-79
2022/09/01 01:55:26;;;;;;;6.58;3.60;;;;;;;13.16;84.07;95485.42;1732281;83;21050;-79
2022/09/01 01:57:50;;;;;;;9.03;3.42;;;;;;;13.15;83.51;95493.84;1731487;83;21011;-79
2022/09/01 02:00:22;;;;;;;5.35;3.35;;;;;;;13.06;84.08;95494.11;1731961;83;21019;-78
2022/09/01 02:02:53;;;;;;;7.92;3.33;;;;;;;13.02;84.99;95503.50;1732319;83;21058;-79
2022/09/01 02:05:24;;;;;;;9.23;4.17;;;;;;;13.02;84.41;95500.86;1732052;83;21094;-79
2022/09/01 02:07:58;;;;;;;4.95;3.65;;;;;;;13.00;83.90;95503.53;1731907;83;21018;-79
2022/09/01 02:10:33;;;;;;;7.50;3.80;;;;;;;13.06;84.04;95503.37;1732094;82;20998;-79
2022/09/01 02:13:05;;;;;;;8.88;3.95;;;;;;;13.12;84.06;95492.58;1732124;83;21042;-79
2022/09/01 02:15:41;;;;;;;9.43;4.17;;;;;;;13.10;83.43;95494.87;1732321;82;21014;-78
2022/09/01 02:18:05;;;;;;;4.08;3.67;;;;;;;13.10;83.90;95494.87;1731129;83;21003;-79
2022/09/01 02:20:32;;;;;;;9.40;4.12;;;;;;;13.07;84.38;95497.61;1732117;83;21039;-79
2022/09/01 02:23:09;;;;;;;6.53;3.80;;;;;;;13.04;84.43;95499.03;1731683;83;21066;-79
2022/09/01 02:25:31;;;;;;;6.17;3.33;;;;;;;13.02;84.10;95503.50;1704366;83;21512;-79
2022/09/01 02:27:59;;;;;;;5.65;3.30;;;;;;;12.96;84.71;95504.09;1732162;83;21536;-79
2022/09/01 02:30:26;;;;;;;4.75;3.62;;;;;;;12.93;84.55;95503.34;1732080;83;21515;-79
2022/09/01 02:32:53;;;;;;;4.12;3.67;;;;;;;12.99;84.57;95500.03;1732020;83;21030;-78
2022/09/01 02:35:20;;;;;;;6.97;3.58;;;;;;;13.01;84.01;95499.13;1732073;83;21050;-78
2022/09/01 02:37:49;;;;;;;7.83;3.50;;;;;;;13.01;83.97;95497.81;1732055;83;21501;-79
2022/09/01 02:40:16;;;;;;;10.15;4.00;;;;;;;13.04;83.92;95493.73;1732200;83;21457;-79
2022/09/01 02:42:45;;;;;;;10.38;3.55;;;;;;;13.06;84.00;95497.22;1732149;83;21600;-79
2022/09/01 02:45:14;;;;;;;7.15;3.50;;;;;;;13.03;84.37;95507.88;1732135;83;21517;-78
2022/09/01 02:47:44;;;;;;;9.00;3.70;;;;;;;12.98;84.06;95500.95;1731644;83;21150;-78
2022/09/01 02:50:12;;;;;;;7.28;3.70;;;;;;;12.99;84.05;95494.73;1731531;83;21003;-79
2022/09/01 02:52:39;;;;;;;6.90;3.67;;;;;;;12.99;83.89;95493.41;1731486;83;21042;-79
2022/09/01 02:55:08;;;;;;;6.87;3.80;;;;;;;13.02;83.62;95495.09;1732391;83;20995;-79
2022/09/01 02:57:35;;;;;;;12.93;4.10;;;;;;;13.03;83.42;95491.98;1732091;83;21538;-79
2022/09/01 03:00:19;;;;;;;5.92;3.40;;;;;;;13.03;83.52;95491.98;1732227;83;21042;-78
2022/09/01 03:02:35;;;;;;;9.80;3.87;;;;;;;12.98;82.92;95500.09;1705846;83;21125;-79
2022/09/01 03:05:04;;;;;;;11.25;4.28;;;;;;;13.01;83.41;95495.16;1732197;83;21034;-79
2022/09/01 03:07:31;;;;;;;7.37;3.65;;;;;;;13.03;83.09;95493.31;1732126;83;21520;-79
2022/09/01 03:09:58;;;;;;;7.70;3.70;;;;;;;12.98;82.71;95486.85;1705100;83;21496;-78
2022/09/01 03:12:25;;;;;;;5.85;3.30;;;;;;;12.86;83.23;95491.18;1731921;83;21031;-78
2022/09/01 03:14:52;;;;;;;7.28;3.33;;;;;;;12.83;83.11;95492.60;1731940;83;21030;-79
2022/09/01 03:17:20;;;;;;;7.55;3.95;;;;;;;12.72;82.98;95491.56;1731776;83;21042;-79
2022/09/01 03:19:47;;;;;;;7.30;3.77;;;;;;;12.62;83.46;95489.63;1732146;83;21026;-79
2022/09/01 03:22:14;;;;;;;5.47;3.80;;;;;;;12.55;83.86;95493.38;1731939;83;21039;-79
2022/09/01 03:24:41;;;;;;;5.20;3.55;;;;;;;12.52;84.16;95486.83;1732032;83;21019;-79
2022/09/01 03:27:10;;;;;;;8.13;3.02;;;;;;;12.47;84.49;95495.34;1732155;83;21035;-79
2022/09/01 03:29:37;;;;;;;6.83;3.65;;;;;;;12.41;84.86;95489.78;1732177;83;20959;-79
2022/09/01 03:32:05;;;;;;;6.25;3.77;;;;;;;12.48;85.40;95490.48;1732243;83;21023;-79
2022/09/01 03:34:35;;;;;;;10.38;3.98;;;;;;;12.50;84.73;95488.67;1732120;83;21442;-79
2022/09/01 03:37:02;;;;;;;4.80;3.65;;;;;;;12.51;85.05;95491.26;1731796;83;21019;-79
2022/09/01 03:39:29;;;;;;;8.05;3.37;;;;;;;12.55;84.93;95483.66;1732043;83;21046;-80
2022/09/01 03:41:57;;;;;;;9.88;3.40;;;;;;;12.55;84.66;95482.80;1731785;83;21485;-80
2022/09/01 03:44:24;;;;;;;6.17;3.58;;;;;;;12.53;84.13;95484.16;1732132;83;21062;-80
2022/09/01 03:46:51;;;;;;;5.90;3.62;;;;;;;12.49;84.42;95484.27;1731836;83;21134;-80
2022/09/01 03:49:23;;;;;;;6.97;3.40;;;;;;;12.48;83.92;95484.73;1711546;83;21103;-80
2022/09/01 03:51:49;;;;;;;4.75;3.45;;;;;;;12.41;84.91;95484.95;1700853;84;21031;-80
2022/09/01 03:54:16;;;;;;;5.30;3.30;;;;;;;12.43;84.92;95484.45;1701156;84;21019;-80
2022/09/01 03:56:44;;;;;;;7.05;3.50;;;;;;;12.47;84.89;95480.80;1701150;84;21520;-81
2022/09/01 03:59:15;;;;;;;6.53;3.98;;;;;;;12.47;84.60;95479.47;1701323;83;21039;-81
2022/09/01 04:01:42;;;;;;;5.95;4.30;;;;;;;12.49;84.35;95483.81;1701151;84;21023;-81
2022/09/01 04:04:14;;;;;;;9.08;5.15;;;;;;;12.46;84.83;95486.55;1701069;84;21057;-81
2022/09/01 04:06:43;;;;;;;7.87;4.10;;;;;;;12.49;84.66;95488.24;1701259;84;21022;-81
2022/09/01 04:09:11;;;;;;;6.40;3.70;;;;;;;12.49;84.85;95486.45;1701292;84;21501;-81
2022/09/01 04:11:40;;;;;;;9.13;4.25;;;;;;;12.52;84.58;95484.18;1679451;84;21553;-81
2022/09/01 04:14:10;;;;;;;7.37;5.37;;;;;;;12.45;84.27;95484.83;1701391;84;21019;-81
2022/09/01 04:19:25;;;;;;;7.08;4.45;;;;;;;12.48;84.45;95484.73;1701178;84;21016;-82
2022/09/01 04:21:58;;;;;;;9.13;5.40;;;;;;;12.47;85.80;95483.02;1701619;84;21055;-77
2022/09/01 04:24:30;;;;;;;7.50;4.47;;;;;;;12.62;85.75;95480.83;1701241;84;21012;-81
2022/09/01 04:27:00;;;;;;;6.33;3.87;;;;;;;12.75;85.60;95481.77;1701297;84;21048;-81
2022/09/01 04:29:30;;;;;;;4.35;3.60;;;;;;;12.86;84.93;95483.23;1701314;84;21541;-81
2022/09/01 04:32:08;;;;;;;7.28;4.42;;;;;;;12.86;84.64;95492.50;1701252;84;21059;-81
2022/09/01 04:34:38;;;;;;;7.85;4.00;;;;;;;12.91;85.16;95490.13;1701362;84;21024;-81
2022/09/01 04:37:13;;;;;;;9.40;3.98;;;;;;;12.99;85.00;95495.20;1701146;84;21014;-81
2022/09/01 04:39:47;;;;;;;6.87;4.03;;;;;;;13.04;84.11;95501.22;1701213;84;21552;-81
2022/09/01 04:42:10;;;;;;;9.73;3.70;;;;;;;13.14;84.37;95490.76;1700388;84;21565;-81
2022/09/01 04:44:38;;;;;;;7.92;4.42;;;;;;;13.24;84.03;95497.98;1701305;84;20987;-81
2022/09/01 04:47:09;;;;;;;6.45;3.83;;;;;;;13.31;83.82;95494.27;1701231;84;21007;-81
2022/09/01 04:49:36;;;;;;;4.62;3.80;;;;;;;13.35;83.68;95493.70;1720788;83;21080;-81
2022/09/01 04:52:03;;;;;;;7.47;4.15;;;;;;;13.33;83.36;95494.20;1732067;83;21003;-80
2022/09/01 04:54:33;;;;;;;5.70;4.05;;;;;;;13.28;83.70;95489.06;1732172;83;21050;-81
2022/09/01 04:56:59;;;;;;;7.33;4.15;;;;;;;13.28;83.99;95486.84;1732232;83;21015;-81
2022/09/01 04:59:29;;;;;;;5.97;3.70;;;;;;;13.32;84.45;95479.22;1732247;83;21022;-81
2022/09/01 05:01:59;;;;;;;5.58;4.22;;;;;;;13.37;84.58;95476.83;1732171;83;21039;-81
2022/09/01 05:04:32;;;;;;;7.22;4.62;;;;;;;13.42;84.60;95476.69;1731864;83;21099;-81
2022/09/01 05:07:02;;;;;;;9.08;4.95;;;;;;;13.48;84.51;95464.59;1732112;83;21050;-81
2022/09/01 05:09:35;;;;;;;7.45;4.08;;;;;;;13.68;84.88;95463.05;1731375;82;21026;-81
2022/09/01 05:12:11;;;;;;;5.67;4.27;;;;;;;13.80;84.40;95456.88;1731316;83;21022;-81
2022/09/01 05:14:42;;;;;;;6.53;4.80;;;;;;;13.95;84.02;95457.30;1732100;83;21737;-81
2022/09/01 05:17:11;;;;;;;7.00;5.47;;;;;;;14.11;84.23;95447.91;1732322;83;21030;-81
2022/09/01 05:19:46;;;;;;;7.03;5.15;;;;;;;14.25;83.77;95446.08;1732072;83;21062;-81
2022/09/01 05:22:20;;;;;;;5.00;4.50;;;;;;;14.34;83.93;95441.78;1732262;83;21035;-80
2022/09/01 05:24:45;;;;;;;6.78;4.47;;;;;;;14.51;83.96;95437.17;1730983;83;21015;-81
2022/09/01 05:27:14;;;;;;;4.78;3.98;;;;;;;14.67;83.14;95407.85;1732229;83;21474;-81
2022/09/01 05:29:45;;;;;;;6.28;4.60;;;;;;;14.79;82.81;95426.89;1732331;83;21039;-81
2022/09/01 05:32:11;;;;;;;7.20;4.58;;;;;;;14.93;82.46;95427.23;1732187;83;21031;-81
2022/09/01 05:34:42;;;;;;;5.47;4.35;;;;;;;15.02;81.96;95419.36;1732175;83;21015;-80
2022/09/01 05:37:11;;;;;;;7.95;4.42;;;;;;;15.20;81.73;95420.00;1732278;83;21019;-80
2022/09/01 05:39:39;;;;;;;5.50;4.70;;;;;;;15.31;81.36;95418.23;1732153;83;21039;-80
2022/09/01 05:42:07;;;;;;;6.33;4.80;;;;;;;15.47;81.88;95421.13;1732124;83;21026;-80
2022/09/01 05:44:38;;;;;;;6.87;4.30;;;;;;;15.64;81.59;95425.30;1732320;83;21050;-80
2022/09/01 05:47:05;;;;;;;7.42;4.28;;;;;;;15.78;81.58;95422.98;1732164;83;21023;-80
2022/09/01 05:49:32;;;;;;;5.12;4.53;;;;;;;15.91;80.74;95424.66;1716120;83;21008;-79
2022/09/01 05:52:02;;;;;;;8.63;4.50;;;;;;;16.05;80.70;95421.42;1701447;83;21071;-79
2022/09/01 05:54:31;;;;;;;7.97;4.37;;;;;;;16.25;81.10;95421.87;1701225;84;21043;-79
2022/09/01 05:56:58;;;;;;;7.72;4.28;;;;;;;16.40;80.14;95419.00;1701205;84;21528;-78
2022/09/01 05:59:32;;;;;;;6.40;4.03;;;;;;;16.49;79.43;95419.08;1701317;84;20995;-79
2022/09/01 06:02:08;;;;;;;12.40;4.90;;;;;;;16.59;78.99;95419.06;1700965;84;21486;-78
2022/09/01 06:04:40;;;;;;;7.62;4.03;;;;;;;16.71;79.24;95418.52;1701280;84;21077;-78
2022/09/01 06:07:08;;;;;;;8.87;4.43;;;;;;;16.84;78.62;95417.52;1679346;84;21006;-78
2022/09/01 06:09:41;;;;;;;8.83;4.58;;;;;;;17.02;78.83;95405.13;1700778;84;21043;-78
2022/09/01 06:12:16;;;;;;;8.58;4.70;;;;;;;17.21;79.42;95396.67;1701288;84;21035;-78
2022/09/01 06:14:38;;;;;;;8.45;4.75;;;;;;;17.48;79.41;95405.11;1700894;84;21087;-78
2022/09/01 06:17:08;;;;;;;5.58;4.65;;;;;;;17.60;76.50;95410.33;1701325;84;20983;-78
2022/09/01 06:19:34;;;;;;;6.70;4.75;;;;;;;17.75;76.21;95410.05;1679215;84;21008;-79
2022/09/01 06:22:01;;;;;;;7.08;5.03;;;;;;;17.84;74.91;95414.08;1679280;84;21517;-79
2022/09/01 06:24:28;;;;;;;7.17;5.65;;;;;;;18.01;75.02;95414.09;1700752;84;21075;-79
2022/09/01 06:26:55;;;;;;;6.47;4.45;;;;;;;18.15;75.84;95414.75;1701256;84;21031;-79
2022/09/01 06:29:22;;;;;;;5.25;4.50;;;;;;;18.25;74.52;95405.31;1701174;84;20987;-79
2022/09/01 06:31:51;;;;;;;7.25;4.70;;;;;;;18.26;73.08;95407.51;1700847;84;21015;-79
2022/09/01 06:34:19;;;;;;;7.17;4.95;;;;;;;18.30;73.55;95405.94;1701403;84;21490;-79
2022/09/01 06:36:51;;;;;;;11.00;4.92;;;;;;;18.42;73.65;95409.79;1700878;84;21023;-78
2022/09/01 06:39:21;;;;;;;10.40;4.60;;;;;;;18.52;73.61;95404.35;1701201;84;21032;-79
2022/09/01 06:41:48;;;;;;;10.03;4.75;;;;;;;18.67;72.76;95412.48;1700799;84;21008;-79
2022/09/01 06:44:21;;;;;;;6.35;4.85;;;;;;;18.63;71.50;95408.27;1701113;84;21051;-80
2022/09/01 06:46:47;;;;;;;7.42;4.72;;;;;;;18.68;72.43;95403.05;1701056;84;21028;-80
2022/09/01 06:49:14;;;;;;;6.15;4.90;;;;;;;18.76;71.99;95400.86;1709459;83;21018;-79
2022/09/01 06:51:41;;;;;;;7.08;4.92;;;;;;;18.83;70.39;95404.08;1732130;83;21019;-79
2022/09/01 06:54:13;;;;;;;5.65;4.85;;;;;;;18.88;70.26;95402.50;1731971;83;21083;-79
2022/09/01 06:56:37;;;;;;;6.03;5.10;;;;;;;18.93;70.00;95401.30;1731807;83;21078;-79
2022/09/01 06:59:06;;;;;;;8.23;4.72;;;;;;;19.02;71.08;95399.91;1731750;83;21537;-79
2022/09/01 07:01:34;;;;;;;10.53;4.55;;;;;;;19.12;71.02;95394.92;1731840;83;21039;-79
2022/09/01 07:04:02;;;;;;;7.30;5.20;;;;;;;19.20;70.26;95405.60;1732076;83;21063;-80
2022/09/01 07:06:30;;;;;;;7.62;4.20;;;;;;;19.30;70.96;95401.05;1730232;83;21516;-80
2022/09/01 07:09:18;;;;;;;7.42;4.85;;;;;;;19.43;69.96;95404.31;1730405;83;21031;-80
2022/09/01 07:11:47;;;;;;;6.45;5.35;;;;;;;19.63;70.66;95407.19;1729154;83;21030;-79
2022/09/01 07:14:16;;;;;;;5.85;5.22;;;;;;;19.79;69.99;95409.88;1732080;83;21007;-80
2022/09/01 07:16:43;;;;;;;6.60;4.85;;;;;;;19.93;70.00;95402.84;1732254;83;21548;-80
2022/09/01 07:19:14;;;;;;;6.10;4.40;;;;;;;20.03;69.72;95404.03;1731857;83;21082;-79
2022/09/01 07:21:46;;;;;;;5.00;4.58;;;;;;;20.14;68.28;95406.95;1731514;83;21011;-80
2022/09/01 07:24:16;;;;;;;9.20;5.83;;;;;;;20.19;68.51;95409.36;1731479;83;21051;-80
2022/09/01 07:26:48;;;;;;;5.50;4.92;;;;;;;20.23;68.62;95405.53;1728657;83;21022;-80
2022/09/01 07:29:15;;;;;;;5.30;4.72;;;;;;;20.28;68.43;95400.27;1732259;83;20987;-80
2022/09/01 07:31:43;;;;;;;5.55;4.78;;;;;;;20.34;68.61;95402.23;1731836;83;21023;-80
2022/09/01 07:34:13;;;;;;;10.95;5.00;;;;;;;20.39;68.62;95405.49;1732165;83;21027;-80
2022/09/01 07:36:41;;;;;;;5.30;4.47;;;;;;;20.48;68.56;95400.89;1705207;83;21048;-79
2022/09/01 07:39:12;;;;;;;7.83;4.90;;;;;;;20.56;68.31;95403.14;1732011;83;21101;-80
2022/09/01 07:41:41;;;;;;;7.92;4.45;;;;;;;20.58;68.02;95403.43;1732102;83;21516;-80
2022/09/01 07:44:21;;;;;;;5.60;5.03;;;;;;;20.60;67.66;95400.19;1729215;83;21079;-79
2022/09/01 07:46:53;;;;;;;6.50;5.47;;;;;;;20.66;65.83;95408.32;1720621;83;21042;-80
2022/09/01 07:49:20;;;;;;;5.70;5.10;;;;;;;20.81;67.73;95390.42;1726136;83;21043;-80
2022/09/01 07:51:50;;;;;;;5.47;4.90;;;;;;;21.04;67.68;95397.03;1701281;84;21036;-80
2022/09/01 07:54:15;;;;;;;7.67;4.87;;;;;;;21.20;66.93;95393.77;1700882;84;21577;-80
2022/09/01 07:56:43;;;;;;;5.60;4.97;;;;;;;21.25;65.05;95393.00;1701067;84;21119;-80
2022/09/01 07:59:11;;;;;;;6.53;5.22;;;;;;;21.29;64.33;95399.91;1701122;84;21059;-80
2022/09/01 08:01:41;;;;;;;7.55;5.08;;;;;;;21.38;65.21;95398.44;1700357;84;21063;-80
2022/09/01 08:04:08;;;;;;;6.50;4.87;;;;;;;21.46;65.21;95396.63;1701255;84;20995;-81
2022/09/01 08:06:35;;;;;;;6.15;5.08;;;;;;;21.43;65.24;95397.69;1701332;84;21000;-80
2022/09/01 08:09:04;;;;;;;6.33;4.83;;;;;;;21.47;65.37;95396.55;1701026;84;20976;-80
2022/09/01 08:11:32;;;;;;;5.42;4.83;;;;;;;21.47;64.08;95391.17;1701211;84;21047;-81
2022/09/01 08:14:00;;;;;;;7.22;4.87;;;;;;;21.42;65.01;95393.30;1701180;84;21003;-81
2022/09/01 08:16:29;;;;;;;9.98;5.47;;;;;;;21.45;65.88;95391.75;1701179;84;21064;-81
2022/09/01 08:18:59;;;;;;;5.70;4.65;;;;;;;21.57;65.42;95396.78;1701184;84;21055;-81
2022/09/01 08:21:31;;;;;;;6.55;4.72;;;;;;;21.61;63.78;95392.95;1700463;84;21043;-81
2022/09/01 08:24:01;;;;;;;5.92;4.90;;;;;;;21.70;64.68;95388.33;1700629;84;21643;-80
2022/09/01 08:26:29;;;;;;;7.10;4.97;;;;;;;21.80;64.73;95382.73;1701160;84;21015;-81
2022/09/01 08:28:55;;;;;;;5.70;4.70;;;;;;;21.90;64.79;95379.41;1701328;84;21066;-81
2022/09/01 08:31:26;;;;;;;5.55;5.05;;;;;;;21.98;64.77;95379.78;1700042;84;21075;-81
2022/09/01 08:33:54;;;;;;;6.35;4.80;;;;;;;22.11;63.79;95381.16;1701237;84;21094;-81
2022/09/01 08:36:21;;;;;;;6.50;5.00;;;;;;;22.20;64.38;95384.12;1701063;84;21558;-80
2022/09/01 08:38:48;;;;;;;5.35;4.85;;;;;;;22.23;64.11;95378.53;1700800;84;21028;-81
2022/09/01 08:41:29;;;;;;;7.25;5.45;;;;;;;22.25;63.89;95375.26;1701219;84;21034;-81
2022/09/01 08:44:23;;;;;;;13.25;4.80;;;;;;;22.28;64.49;95382.25;1701312;84;21018;-81
2022/09/01 08:46:55;;;;;;;6.22;4.87;;;;;;;22.24;63.91;95384.27;1701009;84;21050;-81
2022/09/01 08:49:25;;;;;;;7.93;5.00;;;;;;;22.16;63.74;95384.39;1700864;83;21010;-80
2022/09/01 08:52:32;;;;;;;6.08;5.40;;;;;;;22.16;63.87;95379.02;1683487;84;21011;-81
2022/09/01 08:55:41;;;;;;;5.33;4.47;;;;;;;22.24;64.46;95381.58;1701013;83;21110;-81
2022/09/01 08:58:13;;;;;;;4.78;4.37;;;;;;;22.24;63.20;95386.10;1679358;84;21083;-80
2022/09/01 09:00:51;;;;;;;6.65;5.65;;;;;;;22.26;63.55;95380.14;1680744;84;21012;-81
2022/09/01 09:03:44;;;;;;;8.40;4.83;;;;;;;22.42;62.84;95378.60;1700210;84;21043;-81
2022/09/01 09:06:42;;;;;;;5.08;4.55;;;;;;;22.49;62.54;95375.02;1701194;84;21549;-80
2022/09/01 09:09:09;;;;;;;5.97;4.53;;;;;;;22.74;62.99;95365.61;1701056;84;21031;-81
2022/09/01 09:12:02;;;;;;;7.70;4.55;;;;;;;22.88;60.75;95360.13;1701207;84;20987;-83
2022/09/01 09:14:53;;;;;;;;;;;;;;;23.17;61.78;95361.73;1704003;84;21067;-80
2022/09/01 09:17:24;;;;;;;5.10;4.60;;;;;;;23.43;58.60;95352.59;1710557;84;20165;-80
2022/09/01 09:19:52;;;;;;;6.05;4.42;;;;;;;23.73;59.92;95348.16;1707865;83;21016;-80
2022/09/01 09:22:20;;;;;;;5.00;4.47;;;;;;;23.95;58.23;95349.25;1716493;83;20999;-79
2022/09/01 09:25:04;;;;;;;5.70;4.45;;;;;;;24.16;58.09;95341.36;1715617;83;21078;-77
2022/09/01 09:27:41;;;;;;;12.33;5.12;;;;;;;24.41;58.79;95334.44;1715357;84;21508;-78
2022/09/01 09:30:16;;;;;;;5.80;4.05;;;;;;;24.68;57.34;95338.70;1716466;84;21031;-79
2022/09/01 09:33:03;;;;;;;4.55;4.00;;;;;;;24.90;56.71;95331.63;1716801;82;21007;-79
2022/09/01 09:35:45;;;;;;;7.10;4.70;;;;;;;24.93;55.07;95332.73;1716728;84;20988;-78
2022/09/01 09:38:18;;;;;;;;;;;;;;;24.80;56.61;95331.00;1718861;83;21015;-78
2022/09/01 09:41:10;;;;;;;5.83;4.55;;;;;;;24.78;56.97;95335.65;1716307;83;20113;-79
2022/09/01 09:43:48;;;;;;;4.97;4.50;;;;;;;24.84;57.53;95338.34;1708305;84;21032;-78
2022/09/01 09:46:35;;;;;;;5.62;4.30;;;;;;;24.99;57.15;95343.02;1716487;84;20999;-77
2022/09/01 09:49:30;;;;;;;4.90;4.50;;;;;;;25.10;57.12;95339.45;1716506;83;21537;-76
2022/09/01 09:52:10;;;;;;;5.33;4.37;;;;;;;25.07;56.18;95342.41;1716202;84;21035;-77
2022/09/01 09:54:59;;;;;;;5.37;4.87;;;;;;;25.04;55.36;95338.11;1716298;83;20992;-77
2022/09/01 09:57:27;;;;;;;5.90;5.37;;;;;;;24.92;56.94;95347.18;1716356;83;21119;-76
2022/09/01 10:00:06;;;;;;;5.15;4.65;;;;;;;24.83;56.62;95350.98;1686632;84;21510;-76
2022/09/01 10:02:43;;;;;;;7.05;5.35;;;;;;;24.73;56.55;95347.30;1717271;82;21062;-76
2022/09/01 10:05:38;;;;;;;6.53;4.80;;;;;;;24.64;57.73;95349.85;1716418;83;21083;-76
2022/09/01 10:08:33;;;;;;;5.60;4.97;;;;;;;24.56;57.60;95349.11;1716547;83;21553;-76
2022/09/01 10:10:57;;;;;;;7.25;4.60;;;;;;;24.59;58.09;95343.46;1716298;84;21035;-76
2022/09/01 10:13:28;;;;;;;8.10;5.03;;;;;;;24.67;58.22;95341.52;1716468;83;21027;-76
2022/09/01 10:15:59;;;;;;;5.60;4.65;;;;;;;24.79;57.62;95350.84;1716333;83;21066;-75
2022/09/01 10:18:33;;;;;;;5.45;4.95;;;;;;;24.85;57.17;95346.83;1716569;83;21003;-76
2022/09/01 10:21:07;;;;;;;5.80;5.22;;;;;;;24.90;57.42;95345.97;1716564;83;21007;-76
2022/09/01 10:23:36;;;;;;;5.90;4.90;;;;;;;25.08;57.39;95342.79;1716418;83;21030;-78
2022/09/01 10:26:29;;;;;;;6.92;5.20;;;;;;;25.15;57.41;95342.64;1716016;84;21524;-76
2022/09/01 10:29:10;;;;;;;6.42;5.45;;;;;;;25.03;56.97;95347.20;1716246;83;21063;-76
2022/09/01 10:31:36;;;;;;;6.87;5.30;;;;;;;24.88;57.24;95345.23;1716401;83;21501;-76
2022/09/01 10:34:05;;;;;;;5.50;4.92;;;;;;;24.80;57.96;95343.64;1716120;83;21036;-76
2022/09/01 10:36:35;;;;;;;17.12;6.10;;;;;;;24.67;58.47;95345.56;1716349;84;21015;-76
2022/09/01 10:39:03;;;;;;;7.33;5.78;;;;;;;24.57;58.88;95339.56;1716485;83;21548;-76
2022/09/01 10:41:56;;;;;;;9.98;6.50;;;;;;;24.38;58.64;95348.67;1716289;84;21027;-76
2022/09/01 10:44:37;;;;;;;14.33;5.85;;;;;;;24.22;58.88;95349.45;1716510;83;21003;-76
2022/09/01 10:47:24;;;;;;;9.98;5.50;;;;;;;24.05;59.11;95343.53;1716382;84;21047;-76
2022/09/01 10:49:56;;;;;;;14.25;6.83;;;;;;;23.88;59.45;95338.56;1716455;83;21019;-75
2022/09/01 10:52:46;;;;;;;14.50;7.70;;;;;;;23.70;60.46;95341.63;1716717;83;21031;-76
2022/09/01 10:55:40;;;;;;;8.93;7.55;;;;;;;23.64;60.83;95335.36;1700129;84;20992;-75
2022/09/01 10:58:22;;;;;;;11.03;6.40;;;;;;;23.53;60.90;95345.56;1714954;84;21004;-76
2022/09/01 11:00:51;;;;;;;8.48;5.30;;;;;;;23.45;61.79;95343.08;1701448;84;21493;-75
2022/09/01 11:03:33;;;;;;;10.10;6.05;;;;;;;23.39;61.58;95348.43;1716540;83;21533;-75
2022/09/01 11:06:06;;;;;;;12.60;7.00;;;;;;;23.31;61.81;95347.64;1716579;83;21038;-76
2022/09/01 11:08:51;;;;;;;10.03;7.58;;;;;;;23.21;62.31;95345.71;1716559;84;20991;-76
2022/09/01 11:11:44;;;;;;;16.25;8.38;;;;;;;23.13;62.79;95351.65;1716442;82;20995;-76
2022/09/01 11:14:21;;;;;;;15.18;8.53;;;;;;;23.00;63.52;95346.78;1716849;83;21049;-75
2022/09/01 11:17:13;;;;;;;15.00;9.20;;;;;;;22.86;64.01;95342.38;1716498;83;20999;-75
2022/09/01 11:20:12;;;;;;;9.85;6.80;;;;;;;22.71;63.98;95337.59;1702345;84;21103;-76
2022/09/01 11:23:01;;;;;;;15.58;6.97;;;;;;;22.53;64.53;95339.75;1716464;83;21507;-75
2022/09/01 11:25:49;;;;;;;6.83;6.15;;;;;;;22.33;64.62;95342.97;1716239;83;21075;-75
2022/09/01 11:28:30;;;;;;;9.55;7.03;;;;;;;22.11;65.04;95351.60;1716789;83;21513;-76
2022/09/01 11:31:10;;;;;;;11.68;6.95;;;;;;;21.93;65.89;95348.34;1716754;84;21414;-76
2022/09/01 11:34:11;;;;;;;7.80;7.00;;;;;;;21.83;66.34;95350.28;1716418;84;20995;-76
2022/09/01 11:36:49;;;;;;;10.32;6.42;;;;;;;21.67;67.31;95346.92;1716272;83;21127;-75
2022/09/01 11:39:34;;;;;;;12.93;6.58;;;;;;;21.47;67.23;95358.08;1716173;83;21485;-76
2022/09/01 11:42:17;;;;;;;9.13;6.08;;;;;;;21.29;68.14;95356.08;1716003;84;21647;-76
2022/09/01 11:44:51;;;;;;;7.60;6.72;;;;;;;21.14;68.22;95358.81;1716990;82;21082;-76
2022/09/01 11:47:29;;;;;;;8.53;6.53;;;;;;;21.02;68.82;95363.62;1716298;84;21035;-76
2022/09/01 11:50:01;;;;;;;7.50;6.22;;;;;;;20.97;68.81;95372.44;1716679;82;21060;-76
2022/09/01 11:52:33;;;;;;;8.50;6.60;;;;;;;20.89;69.01;95382.30;1716260;84;21022;-76
2022/09/01 11:54:59;;;;;;;11.13;7.00;;;;;;;20.79;69.33;95382.50;1716665;84;21532;-75
2022/09/01 11:57:32;;;;;;;11.93;7.30;;;;;;;20.74;69.49;95393.50;1716055;84;22233;-75
2022/09/01 12:00:03;;;;;;;15.55;7.85;;;;;;;20.66;69.84;95394.46;1711847;84;21525;-75
2022/09/01 12:02:36;;;;;;;10.32;7.67;;;;;;;20.59;70.28;95395.80;1717076;82;21079;-76
2022/09/01 12:05:08;;;;;;;11.25;7.28;;;;;;;20.55;71.08;95391.56;1716550;84;21023;-76